Aérodrome :
LOGIN :

S'inscrire | Disclaimer

   EN    FR    IT 

 










Légende :    VFR   VFR Marginal   IFR   IFR Intensif   IFR Très Intensif
Visi : 
Plafond : 
>= 8 km
>= 3000ft
5 à 8 km
1000 à 3000 ft
1500m à 5 km
500 à 1000 ft
800 à 1500m
200 à 500 ft
< 800m
< 200 ft
Symboles :   Orages  Brouillard  Fortes neiges  Fortes précipitations  Vent > 20 kt
SIGMETs :   Divers  Orages  Givrage  Turbulence  Onde Orograph.  Cendres Volcan.






- Altitude de l'aérodrome : 142 ft
- Code IATA : ALC


LEAL - Alicante

DERNIER METAR :
  • 240500Z 29003KT CAVOK 10/02 Q1017 NOSIG

METARs EXPIRÉS :
  • 240430Z 33004KT 280V060 CAVOK 12/01 Q1017 NOSIG
  • 240400Z 02004KT 360V070 CAVOK 12/01 Q1016 NOSIG
  • 240330Z 36003KT 320V030 CAVOK 10/03 Q1016 NOSIG
  • 240300Z VRB02KT CAVOK 10/04 Q1016 NOSIG
  • 240230Z VRB02KT CAVOK 09/04 Q1016 NOSIG
  • 240200Z 33003KT CAVOK 11/05 Q1016 NOSIG
  • 240130Z VRB02KT CAVOK 10/04 Q1016 NOSIG
  • 240100Z 33004KT CAVOK 12/05 Q1016 NOSIG
  • 240030Z 30004KT 210V330 CAVOK 12/05 Q1016 NOSIG
  • 240000Z 28004KT CAVOK 11/05 Q1016 NOSIG

TAF TAF LEAL
Valide du 24 à 00h jusqu'au 25 à 00h UTC


232300Z 2400/2424 VRB04KT 9999 FEW030 TX18/2412Z TN08/2406Z
PROB30
TEMPO 2402/2408 31010KT
BECMG 2409/2411 16010KT
BECMG 2418/2420 VRB04KT



MET'MAP, la Météo Aéronautique d'un coup d'oeil ! - Copyright ORBIFLY Décembre 2007 - Disclaimer

ORBIFLY MET'MAP TEAM :

Programmation & Développement : Alexandra Zaïnal
Sur une idée originale de : Baudouin d'Aumeries
Soutien technique & logistique : Manuel Goepfert
Assistance : Marc-Olivier Méhu




SOURCES & CREDITS :

   NOAA